Time;durP1;ratioP1;P1;durP2;ratioP2;P2;SDS_P1;SDS_P2;PMS_P1;PMS_P2;Temp;Humidity;BMP_temperature;BMP_pressure;BME280_temperature;BME280_humidity;BME280_pressure;Samples;Min_cycle;Max_cycle;Signal;HPM_P1;HPM_P2
2023/06/06 00:01:56;;;;;;;5.30;2.95;;;;;;;20.46;27.23;101447.97;5005675;28;20281;-69
2023/06/06 00:04:23;;;;;;;4.43;2.80;;;;;;;20.43;27.92;101440.88;5005720;28;20073;-69
2023/06/06 00:06:52;;;;;;;5.80;2.47;;;;;;;20.39;27.68;101443.16;5008514;28;20039;-70
2023/06/06 00:09:21;;;;;;;5.43;2.78;;;;;;;20.38;27.73;101443.34;5012409;28;20116;-70
2023/06/06 00:11:48;;;;;;;4.75;2.78;;;;;;;20.34;27.98;101442.00;4996322;28;20068;-69
2023/06/06 00:14:18;;;;;;;4.47;2.92;;;;;;;20.30;28.05;101443.41;5006551;28;20050;-69
2023/06/06 00:16:48;;;;;;;4.35;2.75;;;;;;;20.28;28.00;101439.97;5006888;28;20664;-69
2023/06/06 00:19:16;;;;;;;5.60;2.72;;;;;;;20.23;28.49;101442.41;5003910;28;20058;-69
2023/06/06 00:21:45;;;;;;;5.18;2.60;;;;;;;20.20;28.41;101443.63;4999639;28;20053;-69
2023/06/06 00:24:13;;;;;;;5.05;2.50;;;;;;;20.16;28.94;101450.63;5001242;28;20563;-69
2023/06/06 00:26:40;;;;;;;4.90;3.03;;;;;;;20.13;28.69;101445.41;4997081;28;20440;-69
2023/06/06 00:29:08;;;;;;;4.97;2.80;;;;;;;20.10;28.92;101450.50;5002663;28;20119;-69
2023/06/06 00:31:36;;;;;;;5.10;3.15;;;;;;;20.06;28.96;101444.41;5001040;28;20540;-69
2023/06/06 00:34:06;;;;;;;3.90;2.67;;;;;;;20.06;28.95;101446.34;5005262;28;20096;-69
2023/06/06 00:36:33;;;;;;;4.15;2.78;;;;;;;20.00;29.27;101442.38;5001281;28;20049;-70
2023/06/06 00:39:01;;;;;;;3.83;2.60;;;;;;;19.97;28.97;101449.16;5006077;28;20476;-70
2023/06/06 00:41:29;;;;;;;5.63;3.10;;;;;;;19.93;29.10;101441.38;5000581;28;20474;-70
2023/06/06 00:43:57;;;;;;;4.93;3.50;;;;;;;19.89;29.44;101439.97;5020922;28;20133;-70
2023/06/06 00:46:26;;;;;;;5.22;2.92;;;;;;;19.86;29.77;101441.22;4999131;28;20052;-70
2023/06/06 00:48:55;;;;;;;4.80;3.25;;;;;;;19.82;29.62;101434.28;5005803;28;20045;-70
2023/06/06 00:51:25;;;;;;;6.38;2.83;;;;;;;19.80;29.92;101433.59;5001965;28;20046;-70
2023/06/06 00:53:54;;;;;;;5.32;2.92;;;;;;;19.75;29.76;101435.19;5001518;28;20042;-70
2023/06/06 00:56:22;;;;;;;5.43;3.13;;;;;;;19.69;29.67;101439.56;5008064;28;20099;-70
2023/06/06 00:58:51;;;;;;;4.72;2.85;;;;;;;19.64;29.90;101437.31;5000821;28;20469;-70
2023/06/06 01:01:19;;;;;;;4.63;3.15;;;;;;;19.61;30.01;101442.38;5002946;28;20046;-70
2023/06/06 01:03:47;;;;;;;5.38;3.03;;;;;;;19.56;30.12;101429.00;5008767;28;20059;-71
2023/06/06 01:06:15;;;;;;;5.72;3.30;;;;;;;19.53;30.42;101429.38;5039162;22;20420;-68
2023/06/06 01:08:46;;;;;;;5.15;3.13;;;;;;;19.52;30.70;101435.97;5018489;28;20508;-68
2023/06/06 01:11:20;;;;;;;4.22;3.00;;;;;;;19.50;30.53;101437.19;5020853;28;20099;-68
2023/06/06 01:13:57;;;;;;;5.68;2.95;;;;;;;19.48;31.55;101439.28;5017947;28;20107;-68
2023/06/06 01:16:27;;;;;;;4.95;3.40;;;;;;;19.42;30.96;101432.53;5022025;28;20152;-67
2023/06/06 01:18:57;;;;;;;5.50;3.15;;;;;;;19.39;30.83;101432.88;5041156;22;20091;-72
2023/06/06 01:21:35;;;;;;;5.20;2.92;;;;;;;19.36;31.06;101438.81;5047487;28;20076;-71
2023/06/06 01:24:04;;;;;;;4.95;3.20;;;;;;;19.30;30.83;101431.16;5040023;28;20051;-73
2023/06/06 01:26:32;;;;;;;5.18;3.03;;;;;;;19.30;30.63;101433.09;5029216;28;20064;-71
2023/06/06 01:29:01;;;;;;;5.60;3.03;;;;;;;19.27;30.96;101431.56;5018948;28;20041;-72
2023/06/06 01:31:37;;;;;;;5.38;3.00;;;;;;;19.29;31.40;101423.06;5018378;28;20520;-72
2023/06/06 01:34:09;;;;;;;5.05;3.33;;;;;;;19.26;31.83;101430.69;5020176;28;20050;-73
2023/06/06 01:36:48;;;;;;;4.90;3.20;;;;;;;19.27;31.57;101428.78;5023370;28;20054;-72
2023/06/06 01:39:19;;;;;;;5.53;3.10;;;;;;;19.24;31.58;101423.56;5022058;28;20041;-73
2023/06/06 01:41:51;;;;;;;4.93;3.03;;;;;;;19.22;31.19;101432.06;5020214;28;20045;-73
2023/06/06 01:44:21;;;;;;;4.07;2.67;;;;;;;19.19;31.19;101428.75;5035865;28;20060;-73
2023/06/06 01:46:49;;;;;;;5.80;3.22;;;;;;;19.20;31.24;101438.81;5022765;28;20085;-72
2023/06/06 01:49:17;;;;;;;6.72;3.10;;;;;;;19.19;31.17;101442.63;5021107;28;20037;-74
2023/06/06 01:51:47;;;;;;;4.45;2.80;;;;;;;19.18;31.48;101440.91;5020152;28;20579;-73
2023/06/06 01:54:15;;;;;;;5.32;3.33;;;;;;;19.16;31.57;101445.75;5024249;28;20053;-72
2023/06/06 01:56:43;;;;;;;4.72;3.17;;;;;;;19.15;31.78;101446.78;5037599;28;20042;-73
2023/06/06 01:59:11;;;;;;;5.10;3.25;;;;;;;19.12;31.31;101442.47;5021382;28;20529;-72
2023/06/06 02:01:39;;;;;;;4.97;3.50;;;;;;;19.11;31.68;101442.66;5021062;28;20065;-73
2023/06/06 02:04:07;;;;;;;5.45;3.05;;;;;;;19.10;31.38;101444.56;5023120;28;20527;-73
2023/06/06 02:06:36;;;;;;;5.95;3.60;;;;;;;19.09;31.80;101445.59;5016202;28;20057;-72
2023/06/06 02:09:06;;;;;;;4.70;3.10;;;;;;;19.10;31.97;101440.91;5027249;28;20064;-73
2023/06/06 02:11:36;;;;;;;5.55;3.45;;;;;;;19.04;32.07;101438.84;5024997;28;20093;-72
2023/06/06 02:14:04;;;;;;;5.93;3.20;;;;;;;19.04;31.66;101439.72;5022625;28;20076;-71
2023/06/06 02:16:32;;;;;;;5.63;3.15;;;;;;;19.04;32.14;101436.09;5025698;28;20041;-72
2023/06/06 02:19:00;;;;;;;5.50;3.40;;;;;;;19.02;31.68;101435.38;5039598;28;20044;-72
2023/06/06 02:21:28;;;;;;;5.13;3.42;;;;;;;18.99;31.77;101442.13;5024616;28;20045;-71
2023/06/06 02:23:56;;;;;;;5.00;3.40;;;;;;;18.97;32.29;101440.56;5026449;28;20041;-72
2023/06/06 02:26:25;;;;;;;6.00;3.65;;;;;;;18.97;32.33;101441.44;5026511;28;20049;-72
2023/06/06 02:28:53;;;;;;;7.28;3.80;;;;;;;18.93;31.91;101442.84;5026809;28;20109;-72
2023/06/06 02:31:23;;;;;;;5.80;3.65;;;;;;;18.90;31.95;101440.41;5025337;28;20120;-73
2023/06/06 02:33:51;;;;;;;6.25;3.63;;;;;;;18.87;32.35;101438.88;5023544;28;20041;-72
2023/06/06 02:36:19;;;;;;;5.95;3.75;;;;;;;18.84;32.57;101441.13;5037766;28;20505;-73
2023/06/06 02:38:47;;;;;;;5.80;3.65;;;;;;;18.82;32.61;101440.41;5046578;28;20041;-74
2023/06/06 02:41:16;;;;;;;5.10;3.45;;;;;;;18.79;32.69;101443.56;5033735;28;20125;-72
2023/06/06 02:43:47;;;;;;;6.25;3.83;;;;;;;18.79;32.47;101446.34;5026050;28;20034;-73
2023/06/06 02:46:15;;;;;;;5.45;4.05;;;;;;;18.74;32.37;101446.84;5026460;28;20064;-70
2023/06/06 02:48:45;;;;;;;5.50;3.70;;;;;;;18.73;32.84;101442.34;5025962;28;20416;-71
2023/06/06 02:51:13;;;;;;;5.95;3.33;;;;;;;18.70;32.75;101437.16;5025960;28;20070;-71
2023/06/06 02:53:42;;;;;;;5.82;3.42;;;;;;;18.69;32.87;101453.97;5027217;28;20136;-71
2023/06/06 02:56:10;;;;;;;6.10;3.42;;;;;;;18.66;32.87;101452.38;5025738;28;20037;-72
2023/06/06 02:58:38;;;;;;;5.78;3.90;;;;;;;18.64;32.32;101457.22;5040069;28;20045;-72
2023/06/06 03:01:09;;;;;;;5.05;3.47;;;;;;;18.64;32.58;101465.53;5021796;28;20053;-72
2023/06/06 03:03:37;;;;;;;4.90;3.25;;;;;;;18.61;32.51;101460.38;5041809;28;20062;-72
2023/06/06 03:06:06;;;;;;;4.97;3.13;;;;;;;18.61;32.70;101470.59;5019795;28;20099;-72
2023/06/06 03:08:35;;;;;;;5.45;3.65;;;;;;;18.60;32.83;101474.41;5026316;28;20041;-71
2023/06/06 03:11:03;;;;;;;5.45;3.65;;;;;;;18.57;33.03;101469.19;5036852;28;20128;-72
2023/06/06 03:13:31;;;;;;;5.60;3.50;;;;;;;18.57;32.55;101471.97;5047414;28;20049;-72
2023/06/06 03:15:59;;;;;;;5.28;3.10;;;;;;;18.55;32.77;101476.81;5041302;28;20110;-72
2023/06/06 03:18:28;;;;;;;5.03;3.42;;;;;;;18.56;32.54;101470.22;5026015;28;20041;-74
2023/06/06 03:21:07;;;;;;;5.65;3.40;;;;;;;18.50;32.94;101472.66;5026497;28;20107;-73
2023/06/06 03:23:41;;;;;;;5.20;3.53;;;;;;;18.49;32.98;101468.13;5026964;28;20559;-73
2023/06/06 03:26:10;;;;;;;5.45;3.65;;;;;;;18.48;32.77;101476.59;5030265;28;20049;-72
2023/06/06 03:28:39;;;;;;;5.68;3.58;;;;;;;18.47;33.05;101474.88;5029532;28;20049;-73
2023/06/06 03:31:11;;;;;;;5.03;3.38;;;;;;;18.47;32.41;101469.34;5035728;28;20045;-72
2023/06/06 03:33:49;;;;;;;5.10;3.53;;;;;;;18.43;32.91;101470.72;5047106;28;20037;-72
2023/06/06 03:36:17;;;;;;;6.25;3.67;;;;;;;18.40;32.86;101477.44;5040705;28;20076;-73
2023/06/06 03:38:46;;;;;;;4.55;3.38;;;;;;;18.39;32.90;101472.09;5046743;28;20051;-73
2023/06/06 03:41:15;;;;;;;6.40;3.35;;;;;;;18.36;32.78;101477.97;5051846;28;20049;-73
2023/06/06 03:43:43;;;;;;;6.25;3.53;;;;;;;18.33;32.73;101464.44;5027658;28;20087;-72
2023/06/06 03:46:12;;;;;;;6.03;3.63;;;;;;;18.30;33.44;101465.69;5036655;28;20087;-72
2023/06/06 03:48:41;;;;;;;6.60;4.00;;;;;;;18.27;32.78;101460.47;5046168;28;20102;-72
2023/06/06 03:51:11;;;;;;;5.45;3.38;;;;;;;18.28;32.91;101464.09;5034048;28;20099;-72
2023/06/06 03:53:39;;;;;;;5.50;3.67;;;;;;;18.24;33.35;101469.09;5025922;28;20046;-73
2023/06/06 03:56:08;;;;;;;6.95;4.00;;;;;;;18.23;33.31;101458.19;5025472;28;20143;-72
2023/06/06 03:58:36;;;;;;;5.85;3.92;;;;;;;18.21;33.58;101468.59;5027587;28;20120;-72
2023/06/06 04:01:04;;;;;;;5.75;3.72;;;;;;;18.18;33.11;101469.78;5024291;28;20089;-73
2023/06/06 04:03:36;;;;;;;6.10;3.70;;;;;;;18.16;33.14;101466.31;5042543;28;20072;-72
2023/06/06 04:06:07;;;;;;;5.50;3.63;;;;;;;18.14;33.59;101471.19;5039339;28;20037;-72
2023/06/06 04:08:40;;;;;;;5.72;3.47;;;;;;;18.11;33.72;101474.28;5028032;28;20124;-72
2023/06/06 04:11:08;;;;;;;5.93;3.90;;;;;;;18.09;33.63;101476.34;5026201;28;20072;-73
2023/06/06 04:13:38;;;;;;;6.97;3.97;;;;;;;18.08;33.34;101477.38;5021403;28;20045;-72
2023/06/06 04:16:07;;;;;;;6.35;3.63;;;;;;;18.06;33.40;101477.53;5029698;28;20069;-72
2023/06/06 04:18:36;;;;;;;5.60;3.97;;;;;;;18.02;33.78;101487.22;5024184;28;20040;-73
2023/06/06 04:21:05;;;;;;;5.82;3.72;;;;;;;18.02;33.53;101483.59;5020403;28;20048;-72
2023/06/06 04:23:32;;;;;;;5.50;3.50;;;;;;;17.99;33.48;101484.78;5026632;28;20068;-72
2023/06/06 04:26:03;;;;;;;5.72;4.10;;;;;;;17.99;33.84;101484.78;5025351;28;20049;-72
2023/06/06 04:28:31;;;;;;;5.70;4.13;;;;;;;17.97;34.09;101486.88;5025145;28;20689;-72
2023/06/06 04:31:00;;;;;;;6.75;4.22;;;;;;;17.95;34.12;101488.94;5030509;28;20136;-73
2023/06/06 04:33:31;;;;;;;7.10;4.13;;;;;;;17.93;33.80;101488.25;5044730;28;20044;-72
2023/06/06 04:36:00;;;;;;;6.45;4.13;;;;;;;17.92;33.92;101489.25;5060926;28;20048;-72
2023/06/06 04:38:29;;;;;;;5.43;3.60;;;;;;;17.92;33.75;101492.03;5043706;28;20037;-72
2023/06/06 04:41:01;;;;;;;5.60;3.70;;;;;;;17.91;33.92;101495.84;5039414;28;20072;-72
2023/06/06 04:43:51;;;;;;;6.63;3.90;;;;;;;17.89;33.93;101492.38;5042198;28;20045;-73
2023/06/06 04:46:21;;;;;;;6.28;3.92;;;;;;;17.90;34.02;101487.69;5048651;28;20416;-73
2023/06/06 04:48:53;;;;;;;5.75;3.63;;;;;;;17.91;33.87;101490.28;5023576;28;20531;-73
2023/06/06 04:51:23;;;;;;;6.00;3.75;;;;;;;17.90;33.87;101496.00;5021391;28;20129;-73
2023/06/06 04:53:53;;;;;;;7.70;4.40;;;;;;;17.89;34.44;101495.16;5025810;28;20072;-72
2023/06/06 04:56:21;;;;;;;5.75;4.15;;;;;;;17.89;34.29;101495.16;5023452;28;20049;-72
2023/06/06 04:58:52;;;;;;;7.20;4.00;;;;;;;17.91;34.10;101495.84;5024827;28;20054;-73
2023/06/06 05:01:21;;;;;;;7.20;3.95;;;;;;;17.90;34.45;101491.31;5022584;28;20765;-73
2023/06/06 05:03:48;;;;;;;7.15;4.32;;;;;;;17.92;34.30;101492.03;5024162;28;20061;-73
2023/06/06 05:06:17;;;;;;;6.68;4.18;;;;;;;17.95;34.41;101486.19;5023777;28;20053;-73
2023/06/06 05:08:45;;;;;;;7.05;3.92;;;;;;;18.02;34.82;101489.13;5025356;28;20045;-72
2023/06/06 05:11:14;;;;;;;6.65;4.00;;;;;;;18.11;34.78;101489.00;5026618;28;20064;-72
2023/06/06 05:13:42;;;;;;;6.38;3.83;;;;;;;18.24;34.52;101488.50;5019204;28;20046;-60
2023/06/06 05:16:11;;;;;;;5.82;4.07;;;;;;;18.41;34.30;101490.28;5022454;28;20052;-59
2023/06/06 05:18:39;;;;;;;6.20;3.75;;;;;;;18.55;34.34;101490.69;5017900;28;20065;-59
2023/06/06 05:21:07;;;;;;;7.10;4.28;;;;;;;18.74;34.59;101490.34;5025114;28;20049;-60
2023/06/06 05:23:36;;;;;;;7.55;4.18;;;;;;;18.93;34.16;101495.56;5024176;28;20076;-64
2023/06/06 05:26:04;;;;;;;8.18;4.35;;;;;;;19.11;34.06;101498.16;5023860;28;20111;-59
2023/06/06 05:28:32;;;;;;;7.32;4.22;;;;;;;19.31;34.01;101488.41;5020826;28;20045;-64
2023/06/06 05:31:02;;;;;;;5.80;4.07;;;;;;;19.50;33.81;101490.81;5021272;28;20045;-60
2023/06/06 05:33:31;;;;;;;6.60;4.45;;;;;;;19.72;33.62;101489.16;5018967;28;20045;-60
2023/06/06 05:36:00;;;;;;;6.88;4.40;;;;;;;19.88;33.14;101491.00;5017807;28;20053;-60
2023/06/06 05:38:28;;;;;;;6.68;4.57;;;;;;;20.06;32.79;101488.00;5025080;28;20041;-60
2023/06/06 05:40:56;;;;;;;6.60;3.97;;;;;;;20.23;32.49;101498.00;5029102;28;20064;-60
2023/06/06 05:43:24;;;;;;;7.53;3.97;;;;;;;20.38;32.32;101496.16;5044200;28;20151;-56
2023/06/06 05:45:52;;;;;;;6.78;4.38;;;;;;;20.52;32.33;101488.97;5043401;28;20081;-60
2023/06/06 05:48:20;;;;;;;6.22;4.30;;;;;;;20.66;31.87;101496.53;5048064;28;20348;-60
2023/06/06 05:50:49;;;;;;;7.00;4.13;;;;;;;20.79;31.88;101496.78;5046719;28;20049;-62
2023/06/06 05:53:17;;;;;;;6.88;4.60;;;;;;;20.85;31.54;101496.03;5046616;28;20080;-62
2023/06/06 05:55:45;;;;;;;6.82;4.47;;;;;;;20.93;31.82;101497.91;5032788;28;20073;-59
2023/06/06 05:58:13;;;;;;;7.25;4.30;;;;;;;21.00;31.32;101505.31;5044436;28;20064;-60
2023/06/06 06:00:41;;;;;;;6.97;4.30;;;;;;;21.04;31.31;101498.28;5041737;28;20099;-63
2023/06/06 06:03:11;;;;;;;7.68;4.05;;;;;;;21.08;31.46;101499.66;5041829;28;20063;-63
2023/06/06 06:05:39;;;;;;;6.95;4.10;;;;;;;21.11;31.29;101496.47;5045912;28;20064;-64
2023/06/06 06:08:08;;;;;;;7.15;4.35;;;;;;;21.14;31.61;101498.91;5060304;28;20053;-60
2023/06/06 06:10:38;;;;;;;5.63;3.67;;;;;;;21.17;31.33;101500.44;5040301;28;20107;-64
2023/06/06 06:13:06;;;;;;;6.50;4.38;;;;;;;21.18;31.34;101501.31;5044349;28;20087;-60
2023/06/06 06:15:36;;;;;;;6.82;4.55;;;;;;;21.20;31.03;101505.63;5039764;28;20037;-61
2023/06/06 06:18:04;;;;;;;7.53;4.45;;;;;;;21.21;31.34;101493.44;5034814;28;20068;-63
2023/06/06 06:20:32;;;;;;;5.32;4.07;;;;;;;21.21;31.22;101498.13;5041626;28;20045;-61
2023/06/06 06:23:01;;;;;;;7.38;3.95;;;;;;;21.23;30.78;101496.03;5043793;28;20064;-61
2023/06/06 06:25:31;;;;;;;6.00;4.45;;;;;;;21.24;31.20;101498.63;5039998;28;20045;-62
2023/06/06 06:27:58;;;;;;;7.13;3.97;;;;;;;21.24;31.41;101504.22;5021026;28;20057;-61
2023/06/06 06:30:26;;;;;;;5.85;3.97;;;;;;;21.27;31.30;101512.22;5017305;28;20056;-61
2023/06/06 06:32:54;;;;;;;5.25;3.95;;;;;;;21.29;30.98;101518.44;5022301;28;20057;-62
2023/06/06 06:35:22;;;;;;;7.25;4.75;;;;;;;21.30;30.90;101514.59;5022280;28;20124;-64
2023/06/06 06:37:50;;;;;;;6.50;4.18;;;;;;;21.33;31.18;101513.38;5025844;28;20076;-65
2023/06/06 06:40:19;;;;;;;5.07;3.78;;;;;;;21.35;30.98;101516.84;5026030;28;20049;-64
2023/06/06 06:42:48;;;;;;;6.47;4.43;;;;;;;21.39;31.21;101507.91;5022691;28;20072;-63
2023/06/06 06:45:28;;;;;;;8.13;4.40;;;;;;;21.36;31.22;101510.19;5022685;28;20045;-65
2023/06/06 06:47:58;;;;;;;6.68;4.40;;;;;;;21.38;31.22;101508.97;5020056;28;20049;-64
2023/06/06 06:50:26;;;;;;;6.35;4.10;;;;;;;21.40;30.93;101506.00;5027714;28;20045;-62
2023/06/06 06:52:55;;;;;;;6.32;3.88;;;;;;;21.40;30.89;101509.63;5042148;28;20048;-64
2023/06/06 06:55:25;;;;;;;6.88;4.13;;;;;;;21.41;31.17;101516.94;5040302;28;20055;-64
2023/06/06 06:57:56;;;;;;;6.30;3.80;;;;;;;21.47;31.22;101509.75;5033077;28;20033;-63
2023/06/06 07:00:24;;;;;;;7.07;4.18;;;;;;;21.48;30.95;101520.69;5037807;28;20056;-61
2023/06/06 07:02:56;;;;;;;5.43;3.67;;;;;;;21.51;31.39;101511.97;5040983;28;20052;-61
2023/06/06 07:05:24;;;;;;;6.05;4.00;;;;;;;21.56;31.36;101514.16;5041085;28;20045;-58
2023/06/06 07:07:54;;;;;;;7.53;4.43;;;;;;;21.65;31.21;101517.72;5043114;28;20054;-61
2023/06/06 07:10:24;;;;;;;6.68;3.90;;;;;;;21.70;31.31;101515.22;5037704;28;20041;-64
2023/06/06 07:12:53;;;;;;;6.53;4.53;;;;;;;21.76;31.26;101515.34;5040738;28;20045;-62
2023/06/06 07:15:27;;;;;;;8.02;4.65;;;;;;;21.83;31.07;101515.44;5036811;28;20060;-62
2023/06/06 07:17:55;;;;;;;6.07;4.03;;;;;;;21.85;30.88;101510.50;5041025;28;20045;-65
2023/06/06 07:20:23;;;;;;;7.60;4.88;;;;;;;21.88;30.52;101516.56;5042910;28;20640;-65
2023/06/06 07:22:53;;;;;;;9.57;4.65;;;;;;;21.91;30.66;101506.13;5042674;28;20044;-64
2023/06/06 07:25:21;;;;;;;6.85;4.47;;;;;;;21.94;30.81;101511.31;5044541;28;20052;-62
2023/06/06 07:27:49;;;;;;;6.05;4.03;;;;;;;21.96;30.31;101511.97;5040827;28;20102;-65
2023/06/06 07:30:17;;;;;;;6.32;3.88;;;;;;;21.98;30.48;101513.53;5037589;28;20131;-62
2023/06/06 07:32:47;;;;;;;6.05;4.10;;;;;;;22.03;30.53;101513.78;5040184;28;20055;-62
2023/06/06 07:35:19;;;;;;;5.20;3.45;;;;;;;22.07;30.91;101509.59;5043821;28;20151;-62
2023/06/06 07:37:48;;;;;;;5.53;3.75;;;;;;;22.06;30.81;101510.63;5043270;28;20064;-62
2023/06/06 07:40:16;;;;;;;7.65;3.97;;;;;;;22.13;30.90;101511.59;5042404;28;20094;-61
2023/06/06 07:42:47;;;;;;;5.72;4.13;;;;;;;22.19;30.70;101513.59;5040960;28;20048;-64
2023/06/06 07:45:15;;;;;;;6.43;3.67;;;;;;;22.27;30.38;101512.59;5039607;28;20107;-61
2023/06/06 07:47:43;;;;;;;5.65;3.90;;;;;;;22.34;30.90;101512.72;5039987;28;20220;-63
2023/06/06 07:50:13;;;;;;;5.35;3.55;;;;;;;22.43;30.68;101517.06;5037666;28;20095;-61
2023/06/06 07:52:43;;;;;;;7.25;3.97;;;;;;;22.49;30.87;101507.94;5038534;28;20065;-61
2023/06/06 07:55:12;;;;;;;5.43;3.67;;;;;;;22.58;30.96;101512.38;5039769;28;20042;-62
2023/06/06 07:57:40;;;;;;;5.18;3.33;;;;;;;22.68;30.70;101512.88;5037681;28;20041;-63
2023/06/06 08:00:10;;;;;;;5.72;3.70;;;;;;;22.78;30.59;101513.44;5040642;28;20032;-60
2023/06/06 08:02:39;;;;;;;6.35;4.15;;;;;;;22.87;30.53;101515.03;5041545;28;20048;-65
2023/06/06 08:05:08;;;;;;;6.07;3.65;;;;;;;22.99;30.41;101518.16;5041874;28;20407;-63
2023/06/06 08:07:40;;;;;;;5.53;3.55;;;;;;;23.10;30.36;101509.22;5040898;28;20452;-64
2023/06/06 08:10:10;;;;;;;5.70;3.65;;;;;;;23.21;30.05;101510.66;5038096;28;20610;-64
2023/06/06 08:12:38;;;;;;;5.10;3.67;;;;;;;23.30;29.90;101513.09;5045107;28;20040;-64
2023/06/06 08:15:09;;;;;;;5.80;3.63;;;;;;;23.41;29.94;101510.81;5039150;28;20053;-62
2023/06/06 08:17:37;;;;;;;6.68;3.90;;;;;;;23.49;29.85;101510.66;5041785;28;20472;-62
2023/06/06 08:20:08;;;;;;;5.13;3.60;;;;;;;23.58;29.29;101509.44;5034964;28;20051;-63
2023/06/06 08:22:38;;;;;;;5.15;3.45;;;;;;;23.63;29.64;101509.69;5043659;28;20064;-62
2023/06/06 08:25:08;;;;;;;6.22;4.10;;;;;;;23.74;29.30;101507.16;5038530;28;20076;-61
2023/06/06 08:27:38;;;;;;;5.60;3.75;;;;;;;23.78;29.54;101507.66;5037275;28;20040;-63
2023/06/06 08:30:08;;;;;;;6.47;4.13;;;;;;;23.87;29.60;101508.34;5039098;28;20037;-63
2023/06/06 08:32:37;;;;;;;6.60;3.78;;;;;;;23.93;29.42;101502.78;5042122;28;20053;-62
2023/06/06 08:35:06;;;;;;;7.10;3.78;;;;;;;24.01;29.17;101510.13;5038534;28;20099;-62
2023/06/06 08:37:34;;;;;;;5.72;4.07;;;;;;;24.08;29.22;101503.50;5040436;23;20062;-75
2023/06/06 08:40:02;;;;;;;6.20;3.92;;;;;;;24.15;28.97;101500.75;5006979;28;20050;-76
2023/06/06 08:42:35;;;;;;;5.57;3.20;;;;;;;24.27;28.98;101501.00;5024780;28;20041;-76
2023/06/06 08:45:06;;;;;;;6.55;3.85;;;;;;;24.34;28.99;101513.06;5024830;28;20052;-77
2023/06/06 08:47:36;;;;;;;4.93;3.33;;;;;;;24.42;28.91;101512.91;5026540;28;20101;-77
2023/06/06 08:50:07;;;;;;;6.45;3.60;;;;;;;24.51;28.91;101503.25;5030514;28;20482;-76
2023/06/06 08:52:36;;;;;;;6.38;3.67;;;;;;;24.60;28.78;101507.59;5053334;28;20036;-76
2023/06/06 08:55:05;;;;;;;5.25;3.63;;;;;;;24.70;28.74;101510.00;5047769;28;20049;-76
2023/06/06 08:57:41;;;;;;;5.07;3.50;;;;;;;24.79;28.55;101506.78;5049028;28;20830;-76
2023/06/06 09:00:18;;;;;;;5.55;3.75;;;;;;;24.87;28.16;101512.19;5043559;28;20032;-75
2023/06/06 09:02:47;;;;;;;5.50;3.47;;;;;;;24.97;28.42;101509.00;5047611;28;20418;-76
2023/06/06 09:05:19;;;;;;;4.50;3.35;;;;;;;25.06;27.94;101510.50;5044389;28;20040;-76
2023/06/06 09:07:48;;;;;;;6.05;3.70;;;;;;;25.10;27.96;101510.94;5050523;28;20035;-77
2023/06/06 09:10:16;;;;;;;6.20;3.55;;;;;;;25.19;27.68;101515.25;5049153;28;20478;-77
2023/06/06 09:12:47;;;;;;;6.25;3.35;;;;;;;25.27;27.28;101512.22;5052124;28;20574;-77
2023/06/06 09:15:16;;;;;;;5.80;3.58;;;;;;;25.32;27.42;101515.22;5055123;28;20048;-77
2023/06/06 09:17:47;;;;;;;4.68;3.25;;;;;;;25.39;27.37;101510.47;5055764;28;20029;-76
2023/06/06 09:20:16;;;;;;;5.97;3.65;;;;;;;25.44;27.04;101505.09;5053362;28;20037;-76
2023/06/06 09:22:46;;;;;;;5.38;3.60;;;;;;;25.48;26.96;101495.16;5056251;28;20040;-76
2023/06/06 09:25:18;;;;;;;5.00;3.65;;;;;;;25.56;26.50;101499.72;5028661;28;20051;-76
2023/06/06 09:27:52;;;;;;;7.40;3.60;;;;;;;25.59;26.58;101496.50;5070534;28;20064;-74
2023/06/06 09:30:22;;;;;;;6.15;3.47;;;;;;;25.62;26.54;101501.66;5064431;28;20537;-76
2023/06/06 09:32:56;;;;;;;5.97;3.47;;;;;;;25.68;26.57;101495.19;5066865;28;20102;-76
2023/06/06 09:35:29;;;;;;;6.00;3.50;;;;;;;25.70;26.61;101501.44;5065414;28;20123;-75
2023/06/06 09:37:58;;;;;;;5.53;3.67;;;;;;;25.75;26.45;101498.81;5069097;28;20039;-75
2023/06/06 09:40:27;;;;;;;8.90;3.28;;;;;;;25.83;26.31;101497.72;5069567;28;20151;-75
2023/06/06 09:42:58;;;;;;;5.22;3.10;;;;;;;25.88;26.19;101496.00;5066122;28;20495;-75
2023/06/06 09:45:27;;;;;;;4.90;3.10;;;;;;;25.90;26.09;101492.94;5067342;28;20132;-76
2023/06/06 09:47:55;;;;;;;6.30;3.80;;;;;;;25.97;26.23;101493.78;5065613;28;20066;-77
2023/06/06 09:50:23;;;;;;;5.63;3.67;;;;;;;26.02;25.76;101492.06;5064064;28;20059;-77
2023/06/06 09:52:52;;;;;;;5.47;3.28;;;;;;;26.09;25.95;101482.78;5062616;28;20421;-76
2023/06/06 09:55:22;;;;;;;5.57;3.17;;;;;;;26.15;25.73;101491.16;5063615;28;20490;-76
2023/06/06 09:57:55;;;;;;;7.45;3.20;;;;;;;26.22;25.43;101492.00;5067213;28;20090;-77
2023/06/06 10:00:26;;;;;;;4.72;2.95;;;;;;;26.28;25.27;101493.94;5066212;28;21447;-77
2023/06/06 10:02:55;;;;;;;5.60;3.53;;;;;;;26.30;25.09;101488.94;5062440;28;20037;-77
2023/06/06 10:05:28;;;;;;;5.82;3.33;;;;;;;26.37;25.30;101488.91;5060749;28;20446;-77
2023/06/06 10:07:57;;;;;;;5.70;3.30;;;;;;;26.42;25.06;101483.47;5083661;28;20152;-77
2023/06/06 10:10:26;;;;;;;5.00;3.25;;;;;;;26.48;25.08;101493.81;5066630;28;20083;-76
2023/06/06 10:12:55;;;;;;;6.65;3.65;;;;;;;26.50;24.86;101491.63;5067682;28;20132;-76
2023/06/06 10:15:26;;;;;;;6.15;3.72;;;;;;;26.54;24.64;101480.84;5064039;28;20053;-76
2023/06/06 10:17:54;;;;;;;5.45;3.28;;;;;;;26.55;24.46;101476.91;5063705;28;20037;-77
2023/06/06 10:20:23;;;;;;;4.70;3.20;;;;;;;26.58;25.02;101480.16;5064705;28;21018;-76
2023/06/06 10:22:52;;;;;;;4.93;3.08;;;;;;;26.60;24.72;101475.19;5064381;28;20029;-76
2023/06/06 10:25:20;;;;;;;5.32;3.20;;;;;;;26.63;24.53;101469.13;5068237;28;20071;-76
2023/06/06 10:27:53;;;;;;;4.78;2.97;;;;;;;26.71;24.40;101463.22;5064496;28;20047;-76
2023/06/06 10:30:35;;;;;;;5.30;3.28;;;;;;;26.78;24.37;101467.97;5058711;28;20052;-75
2023/06/06 10:33:17;;;;;;;5.85;3.58;;;;;;;26.83;24.24;101466.19;5064199;28;20041;-76
2023/06/06 10:35:48;;;;;;;5.07;3.40;;;;;;;26.91;24.23;101456.63;5067454;28;20127;-76
2023/06/06 10:38:17;;;;;;;6.75;3.25;;;;;;;26.93;24.60;101460.94;5064739;28;20044;-75
2023/06/06 10:40:50;;;;;;;5.13;3.20;;;;;;;27.07;24.40;101459.72;5073681;28;20384;-75
2023/06/06 10:43:55;;;;;;;4.50;3.10;;;;;;;27.12;24.17;101453.44;5069519;28;20487;-75
2023/06/06 10:46:26;;;;;;;4.53;2.97;;;;;;;27.22;24.37;101458.53;5061191;28;20041;-76
2023/06/06 10:48:58;;;;;;;5.97;3.03;;;;;;;27.28;24.53;101450.06;5067012;28;20044;-75
2023/06/06 10:51:31;;;;;;;5.45;3.03;;;;;;;27.42;23.93;101453.59;5067090;28;20044;-76
2023/06/06 10:54:22;;;;;;;5.63;3.10;;;;;;;27.46;23.76;101452.88;5074616;28;20049;-76
2023/06/06 10:56:55;;;;;;;5.18;3.05;;;;;;;27.59;23.92;101453.84;5074340;28;20056;-75
2023/06/06 10:59:27;;;;;;;4.53;2.92;;;;;;;27.66;24.20;101449.00;5067199;28;20093;-76
2023/06/06 11:01:56;;;;;;;5.38;2.80;;;;;;;27.74;23.74;101457.16;5070626;28;20064;-76
2023/06/06 11:04:26;;;;;;;5.47;3.00;;;;;;;27.80;22.99;101447.78;5066431;28;20062;-76
2023/06/06 11:07:00;;;;;;;4.15;3.13;;;;;;;27.87;23.40;101454.19;5064715;28;20056;-76
2023/06/06 11:09:31;;;;;;;4.72;2.97;;;;;;;27.94;23.39;101449.34;5077459;22;20033;-74
2023/06/06 11:12:24;;;;;;;5.55;3.15;;;;;;;28.00;22.47;101444.72;5048587;28;20059;-71
2023/06/06 11:14:59;;;;;;;4.30;3.03;;;;;;;28.06;21.81;101436.19;5050085;28;20040;-73
2023/06/06 11:17:30;;;;;;;4.45;2.78;;;;;;;28.14;22.16;101440.63;5029738;28;20076;-68
2023/06/06 11:20:03;;;;;;;4.55;3.00;;;;;;;28.17;22.19;101437.34;5028249;28;20052;-70
2023/06/06 11:22:33;;;;;;;4.80;3.13;;;;;;;28.24;21.38;101427.75;5029801;28;20080;-73
2023/06/06 11:25:02;;;;;;;4.82;2.90;;;;;;;28.29;22.15;101434.63;5026835;28;20049;-73
2023/06/06 11:27:30;;;;;;;4.78;2.97;;;;;;;28.33;21.75;101433.06;5026079;28;20049;-72
2023/06/06 11:29:59;;;;;;;5.07;2.75;;;;;;;28.37;21.41;101446.41;5028590;28;20045;-72
2023/06/06 11:32:28;;;;;;;4.90;2.88;;;;;;;28.44;21.26;101440.69;5029703;28;20143;-72
2023/06/06 11:34:58;;;;;;;4.88;3.10;;;;;;;28.47;21.16;101443.88;5028860;28;20049;-73
2023/06/06 11:37:26;;;;;;;4.60;2.90;;;;;;;28.48;21.07;101439.97;5053140;28;20053;-72